Time;durP1;ratioP1;P1;durP2;ratioP2;P2;SDS_P1;SDS_P2;PMS_P1;PMS_P2;Temp;Humidity;BMP_temperature;BMP_pressure;BME280_temperature;BME280_humidity;BME280_pressure;Samples;Min_cycle;Max_cycle;Signal;HPM_P1;HPM_P2
2024/04/01 00:00:09;;;;;;;11.13;7.13;;;9.20;99.90;;;;;;6306381;22;20296;-73
2024/04/01 00:02:35;;;;;;;9.55;6.55;;;9.20;99.90;;;;;;6305587;22;20197;-73
2024/04/01 00:05:02;;;;;;;7.63;6.77;;;9.10;99.90;;;;;;6309119;22;20275;-74
2024/04/01 00:07:27;;;;;;;13.73;6.25;;;9.10;99.90;;;;;;6309450;22;20253;-74
2024/04/01 00:09:54;;;;;;;6.97;6.10;;;9.10;99.90;;;;;;6310284;22;20176;-74
2024/04/01 00:12:20;;;;;;;8.73;6.35;;;9.10;99.90;;;;;;6310687;22;20275;-74
2024/04/01 00:14:47;;;;;;;9.60;7.20;;;9.00;99.90;;;;;;6314365;22;20263;-74
2024/04/01 00:17:14;;;;;;;11.65;6.32;;;9.00;99.90;;;;;;6312042;22;20196;-73
2024/04/01 00:19:40;;;;;;;10.73;7.13;;;9.00;99.90;;;;;;6308864;22;20662;-74
2024/04/01 00:22:06;;;;;;;11.45;6.72;;;8.90;99.90;;;;;;6309231;22;20182;-73
2024/04/01 00:24:33;;;;;;;8.87;7.20;;;8.90;99.90;;;;;;6309612;22;20284;-74
2024/04/01 00:26:59;;;;;;;11.27;6.90;;;8.90;99.90;;;;;;6309521;22;20176;-73
2024/04/01 00:29:25;;;;;;;10.37;6.77;;;8.90;99.90;;;;;;6308988;22;20278;-73
2024/04/01 00:31:51;;;;;;;9.23;5.88;;;8.90;99.90;;;;;;6307831;22;20182;-73
2024/04/01 00:34:19;;;;;;;17.33;7.73;;;8.90;99.90;;;;;;6307225;22;20632;-73
2024/04/01 00:36:45;;;;;;;9.10;6.50;;;8.90;99.90;;;;;;6307672;22;20200;-73
2024/04/01 00:39:11;;;;;;;8.30;6.73;;;8.80;99.90;;;;;;6307662;22;20180;-73
2024/04/01 00:41:38;;;;;;;9.65;7.63;;;8.80;99.90;;;;;;6306991;22;20179;-73
2024/04/01 00:44:04;;;;;;;9.48;6.28;;;8.80;99.90;;;;;;6305659;22;20250;-73
2024/04/01 00:46:30;;;;;;;9.70;6.75;;;8.80;99.90;;;;;;6305436;22;20200;-72
2024/04/01 00:48:57;;;;;;;8.90;7.97;;;8.70;99.90;;;;;;6305626;22;20167;-72
2024/04/01 00:51:24;;;;;;;14.73;7.70;;;8.70;99.90;;;;;;6305301;22;20176;-72
2024/04/01 00:53:52;;;;;;;14.23;8.32;;;8.70;99.90;;;;;;6305682;22;20522;-72
2024/04/01 00:56:18;;;;;;;9.35;7.32;;;8.60;99.90;;;;;;6305340;22;20223;-72
2024/04/01 00:58:46;;;;;;;8.93;6.20;;;8.60;99.90;;;;;;6305117;22;20224;-73
2024/04/01 01:01:12;;;;;;;12.32;7.75;;;8.60;99.90;;;;;;6305191;22;20517;-73
2024/04/01 01:03:39;;;;;;;11.40;7.07;;;8.50;99.90;;;;;;6305063;22;20179;-73
2024/04/01 01:06:05;;;;;;;12.40;8.30;;;8.50;99.90;;;;;;6304391;22;20962;-72
2024/04/01 01:08:33;;;;;;;9.10;8.17;;;8.40;99.90;;;;;;6305145;22;20241;-73
2024/04/01 01:10:59;;;;;;;10.45;7.28;;;8.40;99.90;;;;;;6305245;22;20657;-74
2024/04/01 01:13:25;;;;;;;10.47;6.20;;;8.40;99.90;;;;;;6304403;22;20176;-73
2024/04/01 01:15:51;;;;;;;8.95;7.05;;;8.30;99.90;;;;;;6304704;22;20199;-72
2024/04/01 01:18:18;;;;;;;15.33;7.43;;;8.30;99.90;;;;;;6304542;22;20505;-73
2024/04/01 01:20:43;;;;;;;8.35;7.07;;;8.30;99.90;;;;;;6305484;22;20187;-72
2024/04/01 01:23:11;;;;;;;11.27;7.10;;;8.30;99.90;;;;;;6305199;22;20172;-72
2024/04/01 01:25:38;;;;;;;11.80;7.97;;;8.20;99.90;;;;;;6304258;22;20219;-72
2024/04/01 01:28:06;;;;;;;9.20;8.05;;;8.20;99.90;;;;;;6304466;22;20262;-73
2024/04/01 01:30:35;;;;;;;7.47;6.70;;;8.10;99.90;;;;;;6304847;22;20190;-73
2024/04/01 01:33:04;;;;;;;9.55;7.93;;;8.10;99.90;;;;;;6305090;22;20210;-74
2024/04/01 01:35:31;;;;;;;23.55;8.23;;;8.00;99.90;;;;;;6304260;22;20199;-73
2024/04/01 01:37:58;;;;;;;13.90;8.40;;;8.00;99.90;;;;;;6304419;22;20670;-74
2024/04/01 01:40:25;;;;;;;11.65;7.25;;;8.00;99.90;;;;;;6304814;22;20176;-74
2024/04/01 01:42:52;;;;;;;12.05;6.68;;;8.00;99.90;;;;;;6305163;22;20184;-73
2024/04/01 01:45:17;;;;;;;8.23;6.70;;;8.00;99.90;;;;;;6305441;22;20203;-73
2024/04/01 01:47:44;;;;;;;10.23;6.43;;;7.90;99.90;;;;;;6307132;22;20176;-74
2024/04/01 01:50:10;;;;;;;9.95;7.65;;;7.80;99.90;;;;;;6305993;22;20186;-74
2024/04/01 01:52:37;;;;;;;11.85;5.72;;;7.80;99.90;;;;;;6306085;22;20179;-74
2024/04/01 01:55:04;;;;;;;8.90;7.13;;;7.80;99.90;;;;;;6306848;22;20196;-74
2024/04/01 01:57:33;;;;;;;12.93;6.90;;;7.80;99.90;;;;;;6306848;22;20202;-73
2024/04/01 01:59:59;;;;;;;8.75;7.03;;;7.70;99.90;;;;;;6305432;22;20183;-73
2024/04/01 02:02:26;;;;;;;8.93;6.28;;;7.70;99.90;;;;;;6304819;22;20214;-73
2024/04/01 02:04:51;;;;;;;12.00;7.85;;;7.70;99.90;;;;;;6304760;22;20196;-73
2024/04/01 02:07:18;;;;;;;9.57;5.87;;;7.70;99.90;;;;;;6304182;22;20172;-73
2024/04/01 02:09:45;;;;;;;9.30;7.15;;;7.70;99.90;;;;;;6304593;22;20418;-73
2024/04/01 02:12:11;;;;;;;13.02;6.93;;;7.60;99.90;;;;;;6304161;22;20192;-73
2024/04/01 02:14:39;;;;;;;7.70;6.47;;;7.60;99.90;;;;;;6304421;22;20467;-73
2024/04/01 02:17:07;;;;;;;9.60;7.07;;;7.60;99.90;;;;;;6304007;22;20737;-73
2024/04/01 02:19:33;;;;;;;7.50;6.40;;;7.50;99.90;;;;;;6304077;22;20176;-73
2024/04/01 02:22:00;;;;;;;6.53;5.95;;;7.50;99.90;;;;;;6304232;22;20175;-72
2024/04/01 02:24:26;;;;;;;15.95;7.95;;;7.50;99.90;;;;;;6304008;22;20175;-73
2024/04/01 02:26:52;;;;;;;8.57;6.70;;;7.50;99.90;;;;;;6304437;22;20203;-74
2024/04/01 02:29:18;;;;;;;9.98;7.78;;;7.50;99.90;;;;;;6304231;22;20266;-72
2024/04/01 02:31:46;;;;;;;8.53;6.80;;;7.50;99.90;;;;;;6304312;22;20631;-73
2024/04/01 02:34:12;;;;;;;8.95;7.13;;;7.50;99.90;;;;;;6304266;22;20183;-73
2024/04/01 02:36:39;;;;;;;9.83;8.53;;;7.40;99.90;;;;;;6303765;22;20191;-73
2024/04/01 02:39:05;;;;;;;10.50;8.30;;;7.40;99.90;;;;;;6303709;22;20199;-73
2024/04/01 02:41:31;;;;;;;20.00;9.38;;;7.40;99.90;;;;;;6304179;22;20490;-73
2024/04/01 02:43:57;;;;;;;10.38;7.03;;;7.40;99.90;;;;;;6305063;22;20195;-73
2024/04/01 02:46:24;;;;;;;11.30;7.63;;;7.40;99.90;;;;;;6304007;22;20275;-73
2024/04/01 02:48:51;;;;;;;12.98;9.25;;;7.40;99.90;;;;;;6304161;22;20418;-73
2024/04/01 02:51:18;;;;;;;18.50;8.20;;;7.30;99.90;;;;;;6304168;22;20662;-74
2024/04/01 02:53:47;;;;;;;14.20;8.13;;;7.30;99.90;;;;;;6303728;22;20636;-74
2024/04/01 02:56:14;;;;;;;16.52;10.20;;;7.30;99.90;;;;;;6303649;22;20283;-73
2024/04/01 02:58:41;;;;;;;12.75;7.20;;;7.30;99.90;;;;;;6303825;22;20200;-74
2024/04/01 03:01:08;;;;;;;13.27;8.23;;;7.30;99.90;;;;;;6303641;22;20175;-73
2024/04/01 03:03:33;;;;;;;8.93;7.85;;;7.30;99.90;;;;;;6303934;22;20187;-73
2024/04/01 03:06:02;;;;;;;9.57;6.97;;;7.30;99.90;;;;;;6303349;22;20524;-73
2024/04/01 03:08:28;;;;;;;12.70;8.75;;;7.30;99.90;;;;;;6303463;22;20211;-73
2024/04/01 03:10:59;;;;;;;14.70;10.07;;;7.30;99.90;;;;;;6304650;22;20187;-73
2024/04/01 03:13:26;;;;;;;11.95;7.97;;;7.30;99.90;;;;;;6314664;22;20484;-73
2024/04/01 03:15:53;;;;;;;11.57;8.05;;;7.30;99.90;;;;;;6304617;22;20199;-73
2024/04/01 03:18:19;;;;;;;9.15;6.38;;;7.30;99.90;;;;;;6304690;22;20200;-73
2024/04/01 03:20:46;;;;;;;11.70;8.77;;;7.30;99.90;;;;;;6304853;22;20206;-72
2024/04/01 03:23:13;;;;;;;13.00;8.05;;;7.30;99.90;;;;;;6304220;22;20207;-74
2024/04/01 03:25:40;;;;;;;14.60;9.13;;;7.20;99.90;;;;;;6303525;22;20241;-74
2024/04/01 03:28:06;;;;;;;10.95;8.40;;;7.30;99.90;;;;;;6305408;22;20551;-73
2024/04/01 03:30:33;;;;;;;12.80;8.50;;;7.30;99.90;;;;;;6305965;22;20176;-73
2024/04/01 03:32:59;;;;;;;13.18;8.43;;;7.20;99.90;;;;;;6306479;22;20187;-72
2024/04/01 03:35:26;;;;;;;18.33;10.40;;;7.20;99.90;;;;;;6317761;22;20195;-73
2024/04/01 03:37:53;;;;;;;18.10;9.68;;;7.20;99.90;;;;;;6310098;22;20200;-72
2024/04/01 03:40:21;;;;;;;16.48;10.98;;;7.20;99.90;;;;;;6306987;22;20184;-72
2024/04/01 03:42:47;;;;;;;12.10;9.70;;;7.20;99.90;;;;;;6306173;22;20188;-73
2024/04/01 03:45:14;;;;;;;18.73;11.13;;;7.20;99.90;;;;;;6306320;22;20508;-73
2024/04/01 03:47:40;;;;;;;12.88;9.40;;;7.10;99.90;;;;;;6305761;22;20240;-73
2024/04/01 03:50:11;;;;;;;16.90;9.20;;;7.10;99.90;;;;;;6305847;22;20184;-73
2024/04/01 03:52:37;;;;;;;12.63;9.30;;;7.10;99.90;;;;;;6305621;22;20464;-73
2024/04/01 03:55:04;;;;;;;16.93;10.53;;;7.10;99.90;;;;;;6305731;22;20199;-73
2024/04/01 03:57:31;;;;;;;20.50;10.93;;;7.10;99.90;;;;;;6305137;22;20420;-73
2024/04/01 03:59:57;;;;;;;16.88;10.20;;;7.00;99.90;;;;;;6305786;22;20187;-73
2024/04/01 04:02:23;;;;;;;17.02;9.13;;;7.00;99.90;;;;;;6305719;22;20176;-73
2024/04/01 04:04:50;;;;;;;24.73;11.63;;;7.00;99.90;;;;;;6305632;22;20708;-73
2024/04/01 04:07:15;;;;;;;15.38;9.90;;;7.00;99.90;;;;;;6305489;22;20176;-73
2024/04/01 04:09:42;;;;;;;11.43;8.20;;;7.00;99.90;;;;;;6305340;22;20194;-74
2024/04/01 04:12:09;;;;;;;13.63;10.15;;;7.00;99.90;;;;;;6306115;22;20180;-76
2024/04/01 04:14:38;;;;;;;15.50;9.13;;;7.00;99.90;;;;;;6305580;22;20194;-74
2024/04/01 04:17:04;;;;;;;16.83;10.80;;;7.00;99.90;;;;;;6304835;22;20215;-74
2024/04/01 04:19:31;;;;;;;13.23;8.83;;;7.00;99.90;;;;;;6305064;22;20266;-74
2024/04/01 04:21:56;;;;;;;12.10;9.13;;;7.00;99.90;;;;;;6305284;22;20644;-74
2024/04/01 04:24:25;;;;;;;14.43;10.20;;;7.00;99.90;;;;;;6305378;22;20172;-74
2024/04/01 04:26:51;;;;;;;16.58;11.32;;;7.00;99.90;;;;;;6304544;22;20377;-74
2024/04/01 04:29:17;;;;;;;18.57;10.13;;;7.00;99.90;;;;;;6305259;22;20666;-74
2024/04/01 04:31:52;;;;;;;13.63;11.23;;;7.00;99.90;;;;;;6305367;22;20414;-74
2024/04/01 04:34:30;;;;;;;22.77;12.60;;;7.00;99.90;;;;;;6305800;22;20163;-74
2024/04/01 04:36:55;;;;;;;22.88;12.90;;;7.00;99.90;;;;;;6315587;22;20195;-75
2024/04/01 04:39:24;;;;;;;20.90;13.80;;;7.00;99.90;;;;;;6305570;22;20199;-75
2024/04/01 04:41:50;;;;;;;12.80;9.20;;;7.00;99.90;;;;;;6305002;22;20567;-75
2024/04/01 04:44:17;;;;;;;14.90;11.23;;;7.00;99.90;;;;;;6305172;22;20200;-75
2024/04/01 04:46:42;;;;;;;15.15;10.38;;;7.00;99.90;;;;;;6304715;22;20207;-74
2024/04/01 04:49:11;;;;;;;18.13;10.33;;;7.10;99.90;;;;;;6305598;22;20168;-75
2024/04/01 04:51:36;;;;;;;18.35;11.48;;;7.00;99.90;;;;;;6304952;22;20440;-74
2024/04/01 04:54:04;;;;;;;14.80;11.57;;;7.00;99.90;;;;;;6305173;22;20654;-74
2024/04/01 04:56:30;;;;;;;24.55;12.70;;;6.90;99.90;;;;;;6304818;22;20210;-73
2024/04/01 04:58:56;;;;;;;21.90;11.17;;;7.00;99.90;;;;;;6305201;22;20195;-74
2024/04/01 05:01:23;;;;;;;16.60;10.70;;;7.00;99.90;;;;;;6304821;22;20179;-73
2024/04/01 05:03:49;;;;;;;15.18;10.25;;;7.00;99.90;;;;;;6305218;22;20468;-73
2024/04/01 05:06:17;;;;;;;21.50;10.33;;;7.00;99.90;;;;;;6304722;22;20192;-73
2024/04/01 05:08:44;;;;;;;14.57;9.52;;;7.00;99.90;;;;;;6305162;22;20195;-73
2024/04/01 05:11:12;;;;;;;18.42;12.15;;;7.00;99.90;;;;;;6305540;22;20179;-73
2024/04/01 05:13:38;;;;;;;17.15;11.75;;;7.00;99.90;;;;;;6305645;22;20290;-71
2024/04/01 05:16:06;;;;;;;16.97;10.00;;;7.00;99.90;;;;;;6305290;22;20655;-74
2024/04/01 05:18:32;;;;;;;14.02;11.70;;;7.00;99.90;;;;;;6305278;22;20492;-74
2024/04/01 05:20:58;;;;;;;17.03;10.23;;;7.00;99.90;;;;;;6305187;22;20256;-73
2024/04/01 05:23:26;;;;;;;17.15;10.85;;;7.00;99.90;;;;;;6305196;22;20616;-74
2024/04/01 05:25:53;;;;;;;14.63;10.73;;;7.10;99.90;;;;;;6304267;22;20219;-73
2024/04/01 05:28:19;;;;;;;18.73;10.65;;;7.10;99.90;;;;;;6305141;22;20179;-74
2024/04/01 05:30:52;;;;;;;19.13;12.37;;;7.10;99.90;;;;;;6305139;22;20214;-73
2024/04/01 05:33:18;;;;;;;22.38;12.35;;;7.10;99.90;;;;;;6305434;22;21150;-73
2024/04/01 05:35:45;;;;;;;18.57;11.67;;;7.10;99.90;;;;;;6305233;22;20196;-74
2024/04/01 05:38:11;;;;;;;17.63;11.60;;;7.10;99.90;;;;;;6305305;22;20444;-74
2024/04/01 05:40:39;;;;;;;19.73;12.20;;;7.20;99.90;;;;;;6305212;22;20175;-74
2024/04/01 05:43:05;;;;;;;18.30;11.23;;;7.20;99.90;;;;;;6305182;22;20186;-74
2024/04/01 05:45:32;;;;;;;19.77;10.60;;;7.20;99.90;;;;;;6304774;22;20196;-73
2024/04/01 05:47:58;;;;;;;19.20;12.30;;;7.20;99.90;;;;;;6305149;22;20505;-74
2024/04/01 05:50:25;;;;;;;20.17;13.33;;;7.20;99.90;;;;;;6315314;22;20164;-74
2024/04/01 05:52:51;;;;;;;21.35;14.38;;;7.20;99.90;;;;;;6303966;22;20891;-74
2024/04/01 05:55:19;;;;;;;20.83;12.23;;;7.20;99.90;;;;;;6303714;22;20196;-73
2024/04/01 05:57:46;;;;;;;17.42;11.25;;;7.20;99.90;;;;;;6304504;22;20191;-72
2024/04/01 06:00:13;;;;;;;21.83;12.93;;;7.30;99.90;;;;;;6304316;22;20187;-73
2024/04/01 06:02:39;;;;;;;16.67;11.80;;;7.30;99.90;;;;;;6304668;22;20184;-73
2024/04/01 06:05:06;;;;;;;19.70;13.90;;;7.30;99.90;;;;;;6304650;22;20196;-73
2024/04/01 06:07:32;;;;;;;18.50;11.90;;;7.40;99.90;;;;;;6304404;22;20180;-73
2024/04/01 06:09:59;;;;;;;18.05;13.38;;;7.40;99.90;;;;;;6305040;22;20179;-72
2024/04/01 06:12:25;;;;;;;16.15;10.80;;;7.40;99.90;;;;;;6304923;22;20176;-72
2024/04/01 06:14:53;;;;;;;18.70;11.13;;;7.50;99.90;;;;;;6304756;22;20295;-74
2024/04/01 06:17:19;;;;;;;22.27;13.57;;;7.50;99.90;;;;;;6305471;22;20179;-73
2024/04/01 06:19:46;;;;;;;23.20;13.40;;;7.50;99.90;;;;;;6304807;22;20209;-73
2024/04/01 06:22:12;;;;;;;19.92;11.82;;;7.50;99.90;;;;;;6304240;22;20429;-74
2024/04/01 06:24:39;;;;;;;21.17;12.73;;;7.50;99.90;;;;;;6303926;22;20175;-75
2024/04/01 06:27:05;;;;;;;21.27;12.80;;;7.60;99.90;;;;;;6304184;22;20867;-72
2024/04/01 06:29:32;;;;;;;20.88;14.65;;;7.60;99.90;;;;;;6304879;22;20172;-72
2024/04/01 06:31:59;;;;;;;24.02;13.80;;;7.60;99.90;;;;;;6304657;22;20186;-73
2024/04/01 06:34:26;;;;;;;17.48;12.65;;;7.70;99.90;;;;;;6304942;22;20180;-74
2024/04/01 06:36:51;;;;;;;21.83;15.20;;;7.60;99.90;;;;;;6304453;22;20204;-72
2024/04/01 06:39:18;;;;;;;24.10;13.13;;;7.70;99.90;;;;;;6304984;22;20654;-73
2024/04/01 06:41:44;;;;;;;21.88;14.23;;;7.70;99.90;;;;;;6304514;22;20186;-73
2024/04/01 06:44:11;;;;;;;22.87;12.67;;;7.70;99.90;;;;;;6305894;22;20172;-72
2024/04/01 06:46:37;;;;;;;17.63;13.18;;;7.70;99.90;;;;;;6305353;22;20200;-72
2024/04/01 06:49:06;;;;;;;15.60;12.18;;;7.70;99.90;;;;;;6304502;22;20168;-73
2024/04/01 06:51:32;;;;;;;23.77;14.20;;;7.80;99.90;;;;;;6304699;22;20271;-73
2024/04/01 06:53:59;;;;;;;24.10;15.30;;;7.80;99.90;;;;;;6304549;22;20185;-73
2024/04/01 06:56:24;;;;;;;23.38;14.60;;;7.80;99.90;;;;;;6303970;22;20219;-73
2024/04/01 06:58:51;;;;;;;25.90;15.90;;;7.80;99.90;;;;;;6303994;22;20200;-73
2024/04/01 07:01:17;;;;;;;18.02;14.23;;;7.80;99.90;;;;;;6304785;22;20514;-73
2024/04/01 07:03:44;;;;;;;25.97;16.50;;;7.80;99.90;;;;;;6304356;22;20187;-73
2024/04/01 07:06:11;;;;;;;19.42;14.38;;;7.80;99.90;;;;;;6304285;22;20196;-73
2024/04/01 07:08:37;;;;;;;21.10;13.30;;;7.90;99.90;;;;;;6303725;22;20628;-73
2024/04/01 07:11:03;;;;;;;19.27;13.77;;;7.90;99.90;;;;;;6304632;22;20183;-73
2024/04/01 07:13:30;;;;;;;18.63;13.07;;;8.00;99.90;;;;;;6304665;22;20176;-72
2024/04/01 07:15:56;;;;;;;27.08;15.77;;;8.00;99.90;;;;;;6303583;22;20199;-72
2024/04/01 07:18:24;;;;;;;18.37;13.70;;;8.10;99.90;;;;;;6303716;22;20660;-73
2024/04/01 07:20:49;;;;;;;29.05;15.60;;;8.10;99.90;;;;;;6303285;22;20418;-74
2024/04/01 07:23:18;;;;;;;25.57;16.60;;;8.20;99.90;;;;;;6303778;22;20354;-73
2024/04/01 07:25:45;;;;;;;25.10;15.13;;;8.20;99.90;;;;;;6302835;22;20215;-73
2024/04/01 07:28:12;;;;;;;26.45;13.40;;;8.20;99.90;;;;;;6304315;22;20203;-74
2024/04/01 07:30:47;;;;;;;25.40;13.90;;;8.20;99.90;;;;;;6304586;22;20569;-73
2024/04/01 07:33:19;;;;;;;24.08;15.15;;;8.30;99.90;;;;;;6303564;22;20167;-73
2024/04/01 07:35:50;;;;;;;20.67;14.13;;;8.30;99.90;;;;;;6303024;22;20279;-73
2024/04/01 07:38:35;;;;;;;24.15;15.75;;;8.30;99.90;;;;;;6303248;22;20579;-73
2024/04/01 07:41:09;;;;;;;33.75;17.40;;;8.30;99.90;;;;;;6303464;22;20222;-73
2024/04/01 07:43:42;;;;;;;32.15;16.38;;;8.30;99.90;;;;;;6303122;22;20160;-73
2024/04/01 07:46:18;;;;;;;27.05;17.30;;;8.40;99.90;;;;;;6302660;22;20217;-74
2024/04/01 07:48:59;;;;;;;21.45;13.50;;;8.40;99.90;;;;;;6302969;22;20152;-71
2024/04/01 07:51:40;;;;;;;26.33;16.58;;;8.40;99.90;;;;;;6303390;22;20475;-73
2024/04/01 07:54:09;;;;;;;27.55;12.75;;;8.40;99.90;;;;;;6302817;22;20198;-74
2024/04/01 07:56:52;;;;;;;28.08;16.50;;;8.40;99.90;;;;;;6303112;22;20231;-73
2024/04/01 07:59:22;;;;;;;25.48;14.75;;;8.40;99.90;;;;;;6303997;22;20755;-73
2024/04/01 08:01:57;;;;;;;32.35;16.73;;;8.40;99.90;;;;;;6303787;22;20475;-72
2024/04/01 08:04:28;;;;;;;20.80;14.50;;;8.50;99.90;;;;;;6303855;22;20247;-73
2024/04/01 08:07:00;;;;;;;22.70;16.75;;;8.50;99.90;;;;;;6302913;22;20200;-73
2024/04/01 08:09:33;;;;;;;21.30;14.60;;;8.60;99.90;;;;;;6303723;22;20656;-73
2024/04/01 08:12:02;;;;;;;27.77;19.05;;;8.60;99.90;;;;;;6303575;22;20165;-72
2024/04/01 08:14:41;;;;;;;25.60;17.05;;;8.60;99.90;;;;;;6304174;22;20160;-74
2024/04/01 08:17:07;;;;;;;27.30;16.17;;;8.60;99.90;;;;;;6304482;22;20171;-72
2024/04/01 08:19:37;;;;;;;27.15;16.75;;;8.70;99.90;;;;;;6305928;22;20278;-72
2024/04/01 08:22:05;;;;;;;33.10;17.52;;;8.70;99.90;;;;;;6305327;22;20487;-71
2024/04/01 08:24:36;;;;;;;33.15;18.92;;;8.70;99.90;;;;;;6305331;22;20263;-72
2024/04/01 08:27:09;;;;;;;33.30;18.20;;;8.80;99.90;;;;;;6304808;22;20199;-72
2024/04/01 08:29:39;;;;;;;24.45;17.42;;;8.80;99.90;;;;;;6305208;22;20235;-72
2024/04/01 08:32:08;;;;;;;30.38;17.13;;;8.70;99.90;;;;;;6305137;22;20182;-73
2024/04/01 08:34:35;;;;;;;22.02;15.55;;;8.60;99.90;;;;;;6304403;22;20176;-73
2024/04/01 08:37:06;;;;;;;32.63;17.45;;;8.60;99.90;;;;;;6304828;22;20225;-73
2024/04/01 08:39:38;;;;;;;25.05;15.80;;;8.60;99.90;;;;;;6305103;22;20191;-73
2024/04/01 08:42:06;;;;;;;24.70;14.88;;;8.70;99.90;;;;;;6305293;22;20549;-72
2024/04/01 08:44:47;;;;;;;27.33;15.13;;;8.70;99.90;;;;;;6305374;22;20254;-73
2024/04/01 08:47:17;;;;;;;31.95;16.60;;;8.70;99.90;;;;;;6304903;22;20504;-73
2024/04/01 08:49:51;;;;;;;34.63;19.35;;;8.80;99.90;;;;;;6304731;22;20156;-73
2024/04/01 08:52:27;;;;;;;43.40;21.00;;;8.80;99.90;;;;;;6305788;22;20192;-74
2024/04/01 08:54:58;;;;;;;29.67;18.33;;;8.90;99.90;;;;;;6304434;22;20200;-73
2024/04/01 08:57:25;;;;;;;28.10;18.17;;;8.90;99.90;;;;;;6305166;22;20180;-73
2024/04/01 09:00:06;;;;;;;31.90;18.92;;;8.90;99.90;;;;;;6304521;22;20241;-73
2024/04/01 09:02:35;;;;;;;31.08;16.80;;;8.90;99.90;;;;;;6304643;22;20218;-74
2024/04/01 09:05:07;;;;;;;24.15;16.35;;;9.00;99.90;;;;;;6304483;22;20196;-74
2024/04/01 09:07:40;;;;;;;24.23;15.50;;;9.00;99.90;;;;;;6304631;22;20251;-73
2024/04/01 09:10:21;;;;;;;24.92;16.70;;;9.00;99.90;;;;;;6304901;22;20231;-73
2024/04/01 09:13:02;;;;;;;21.75;15.30;;;9.10;99.90;;;;;;6304678;22;20167;-73
2024/04/01 09:15:29;;;;;;;24.65;16.00;;;9.10;99.90;;;;;;6304847;22;20192;-74
2024/04/01 09:17:58;;;;;;;29.98;16.70;;;9.10;99.90;;;;;;6305021;22;20199;-74
2024/04/01 09:20:27;;;;;;;31.05;17.60;;;9.20;99.90;;;;;;6304594;22;20272;-73
2024/04/01 09:22:58;;;;;;;27.33;17.85;;;9.30;99.90;;;;;;6304233;22;20176;-72
2024/04/01 09:25:29;;;;;;;30.42;17.83;;;9.30;99.90;;;;;;6304338;22;20200;-73
2024/04/01 09:27:55;;;;;;;26.95;17.73;;;9.40;99.90;;;;;;6304318;22;20243;-72
2024/04/01 09:30:26;;;;;;;29.38;19.02;;;9.40;99.90;;;;;;6304938;22;20175;-73
2024/04/01 09:32:52;;;;;;;31.85;18.02;;;9.40;99.90;;;;;;6304771;22;20674;-73
2024/04/01 09:35:25;;;;;;;28.08;14.85;;;9.40;99.90;;;;;;6305330;22;20196;-75
2024/04/01 09:37:59;;;;;;;19.65;15.10;;;9.30;99.90;;;;;;6304525;22;20639;-73
2024/04/01 09:40:35;;;;;;;26.85;17.30;;;9.30;99.90;;;;;;6305006;22;20218;-73
2024/04/01 09:43:02;;;;;;;17.40;12.00;;;9.30;99.90;;;;;;6304835;22;20167;-73
2024/04/01 09:45:31;;;;;;;29.33;18.27;;;9.30;99.90;;;;;;6304938;22;20353;-73
2024/04/01 09:48:03;;;;;;;23.33;17.98;;;9.20;99.90;;;;;;6305146;22;20231;-73
2024/04/01 09:50:35;;;;;;;23.33;14.45;;;9.30;99.90;;;;;;6306021;22;20239;-74
2024/04/01 09:53:06;;;;;;;20.10;14.32;;;9.20;99.90;;;;;;6305571;22;20237;-73
2024/04/01 09:55:45;;;;;;;27.98;16.88;;;9.30;99.90;;;;;;6306003;22;20192;-74
2024/04/01 09:58:37;;;;;;;28.13;15.43;;;9.30;99.90;;;;;;6308238;22;20214;-73
2024/04/01 10:01:23;;;;;;;27.30;16.30;;;9.30;99.90;;;;;;6307843;22;20168;-74
2024/04/01 10:04:38;;;;;;;28.17;16.13;;;9.40;99.90;;;;;;6309079;22;20165;-73
2024/04/01 10:07:41;;;;;;;21.65;14.23;;;9.40;99.90;;;;;;6305337;22;20178;-74
2024/04/01 10:10:41;;;;;;;21.33;13.95;;;9.50;99.90;;;;;;6284102;22;20176;-74
2024/04/01 10:13:46;;;;;;;23.85;16.90;;;9.50;99.90;;;;;;6297015;22;20186;-74
2024/04/01 10:16:49;;;;;;;24.48;15.93;;;9.50;99.90;;;;;;6303366;22;20200;-74
2024/04/01 10:19:46;;;;;;;19.40;15.38;;;9.50;99.90;;;;;;6304635;22;20514;-73
2024/04/01 10:22:44;;;;;;;26.45;16.30;;;9.60;99.90;;;;;;6303633;22;20183;-73
2024/04/01 10:25:53;;;;;;;29.05;18.65;;;9.60;99.90;;;;;;6303899;22;20200;-74
2024/04/01 10:29:11;;;;;;;29.00;18.48;;;9.70;99.90;;;;;;6304427;22;20184;-74
2024/04/01 10:32:16;;;;;;;28.63;17.13;;;9.70;99.90;;;;;;6304933;22;20301;-75
2024/04/01 10:35:10;;;;;;;24.92;16.95;;;9.70;99.90;;;;;;6303306;22;20473;-73
2024/04/01 10:38:26;;;;;;;23.00;14.55;;;9.80;99.90;;;;;;6305568;22;20187;-73
2024/04/01 10:41:25;;;;;;;26.10;18.00;;;9.80;99.90;;;;;;6315759;22;20531;-74
2024/04/01 10:44:36;;;;;;;29.58;15.95;;;9.70;99.90;;;;;;6306321;22;20187;-73
2024/04/01 10:47:31;;;;;;;26.48;15.70;;;9.70;99.90;;;;;;6306784;22;20474;-74
2024/04/01 10:50:20;;;;;;;31.17;17.92;;;9.80;99.90;;;;;;6305913;22;20554;-74
2024/04/01 10:53:23;;;;;;;32.30;16.75;;;9.90;99.90;;;;;;6305526;22;20160;-74
2024/04/01 10:56:25;;;;;;;30.70;17.48;;;9.90;99.90;;;;;;6304539;22;20748;-73
2024/04/01 10:59:21;;;;;;;28.25;16.13;;;10.10;99.90;;;;;;6236532;22;20525;-74
2024/04/01 11:02:16;;;;;;;23.40;17.10;;;10.10;99.90;;;;;;6299747;22;20211;-74
2024/04/01 11:05:05;;;;;;;24.90;18.67;;;10.10;99.90;;;;;;6304648;22;20156;-74
2024/04/01 11:07:54;;;;;;;30.83;18.20;;;10.20;99.90;;;;;;6304356;22;20159;-74
2024/04/01 11:10:33;;;;;;;26.25;19.10;;;10.30;99.90;;;;;;6304730;22;20446;-74
2024/04/01 11:13:13;;;;;;;26.33;15.93;;;10.30;99.90;;;;;;6304367;22;20160;-75
2024/04/01 11:15:54;;;;;;;27.95;18.88;;;10.30;99.90;;;;;;6303526;22;20200;-74
2024/04/01 11:18:37;;;;;;;23.38;17.20;;;10.30;99.90;;;;;;6303475;22;20215;-74
2024/04/01 11:21:18;;;;;;;30.65;18.10;;;10.30;99.90;;;;;;6304982;22;20229;-73
2024/04/01 11:24:03;;;;;;;30.55;18.70;;;10.40;99.90;;;;;;6314733;22;20643;-73
2024/04/01 11:27:08;;;;;;;24.10;15.65;;;10.40;99.90;;;;;;6304365;22;20222;-73
2024/04/01 11:30:03;;;;;;;25.30;16.02;;;10.40;99.90;;;;;;6286047;22;20172;-74
2024/04/01 11:32:40;;;;;;;29.55;18.55;;;10.40;99.90;;;;;;6305660;22;20179;-73
2024/04/01 11:35:33;;;;;;;28.27;17.10;;;10.40;99.90;;;;;;6304744;22;20196;-73
2024/04/01 11:38:16;;;;;;;22.50;16.05;;;10.40;99.90;;;;;;6305003;22;20160;-74
2024/04/01 11:40:55;;;;;;;34.35;16.83;;;10.40;99.90;;;;;;6304683;22;20180;-73
2024/04/01 11:43:26;;;;;;;28.63;18.23;;;10.40;99.90;;;;;;6305010;22;20187;-73
2024/04/01 11:46:03;;;;;;;25.23;17.50;;;10.40;99.90;;;;;;6304742;22;20517;-73
2024/04/01 11:48:29;;;;;;;27.90;17.08;;;10.50;99.90;;;;;;6305281;22;20242;-73
2024/04/01 11:50:59;;;;;;;36.03;16.98;;;10.50;99.90;;;;;;6304839;22;20194;-74
2024/04/01 11:53:38;;;;;;;29.38;16.67;;;10.50;99.90;;;;;;6305702;22;20176;-74
2024/04/01 11:56:13;;;;;;;28.23;15.82;;;10.50;99.90;;;;;;6305180;22;20348;-73
2024/04/01 11:58:50;;;;;;;37.80;18.95;;;10.50;99.90;;;;;;6305734;22;20164;-73
2024/04/01 12:01:18;;;;;;;29.25;18.25;;;10.50;99.90;;;;;;6305721;22;20183;-73
2024/04/01 12:03:51;;;;;;;23.00;14.82;;;10.50;99.90;;;;;;6306036;22;20183;-73
2024/04/01 12:06:18;;;;;;;22.93;15.97;;;10.50;99.90;;;;;;6306477;22;20199;-73
2024/04/01 12:08:46;;;;;;;26.17;17.25;;;10.50;99.90;;;;;;6305493;22;20517;-72
2024/04/01 12:11:14;;;;;;;22.92;16.15;;;10.60;99.90;;;;;;6306044;22;20180;-73
2024/04/01 12:13:44;;;;;;;23.10;16.75;;;10.60;99.90;;;;;;6305332;22;20175;-73
2024/04/01 12:16:15;;;;;;;22.42;16.15;;;10.60;99.90;;;;;;6305898;22;20199;-73
2024/04/01 12:18:46;;;;;;;33.75;19.95;;;10.60;99.90;;;;;;6306059;22;20206;-73
2024/04/01 12:21:23;;;;;;;24.40;16.10;;;10.60;99.90;;;;;;6305796;22;20184;-74
2024/04/01 12:23:54;;;;;;;23.85;14.13;;;10.60;99.90;;;;;;6301629;22;20744;-73
2024/04/01 12:26:21;;;;;;;32.47;15.95;;;10.60;99.90;;;;;;6304614;22;20239;-73
2024/04/01 12:28:48;;;;;;;27.08;16.75;;;10.60;99.90;;;;;;6305805;22;20183;-73
2024/04/01 12:31:19;;;;;;;21.85;15.75;;;10.60;99.90;;;;;;6305890;22;20266;-73
2024/04/01 12:33:52;;;;;;;28.00;15.30;;;10.60;99.90;;;;;;6304490;22;20178;-73
2024/04/01 12:36:18;;;;;;;20.90;14.60;;;10.60;99.90;;;;;;6305669;22;20196;-73
2024/04/01 12:38:51;;;;;;;32.40;16.73;;;10.60;99.90;;;;;;6306496;22;20176;-73
2024/04/01 12:41:21;;;;;;;29.63;17.25;;;10.60;99.90;;;;;;6305547;22;20515;-74
2024/04/01 12:43:51;;;;;;;26.52;17.63;;;10.60;99.90;;;;;;6305841;22;20156;-73
2024/04/01 12:46:22;;;;;;;21.42;14.73;;;10.60;99.90;;;;;;6305518;22;20313;-73
2024/04/01 12:49:01;;;;;;;27.55;15.45;;;10.60;99.90;;;;;;6306141;22;20160;-74
2024/04/01 12:51:32;;;;;;;24.05;15.35;;;10.60;99.90;;;;;;6306139;22;20494;-74
2024/04/01 12:54:27;;;;;;;31.90;16.48;;;10.60;99.90;;;;;;6305719;22;20233;-73
2024/04/01 12:57:05;;;;;;;30.15;16.00;;;10.60;99.90;;;;;;6305105;22;20624;-74
2024/04/01 12:59:46;;;;;;;28.05;15.07;;;10.60;99.90;;;;;;6305217;22;20184;-73
2024/04/01 13:02:40;;;;;;;29.27;16.27;;;10.60;99.90;;;;;;6315567;22;20156;-73